Time;durP1;ratioP1;P1;durP2;ratioP2;P2;SDS_P1;SDS_P2;PMS_P1;PMS_P2;Temp;Humidity;BMP_temperature;BMP_pressure;BME280_temperature;BME280_humidity;BME280_pressure;Samples;Min_cycle;Max_cycle;Signal;HPM_P1;HPM_P2
2021/11/02 00:02:06;;;;;;;10.65;4.93;;;;;;;;;;5002021;28;20040;-64
2021/11/02 00:04:32;;;;;;;12.73;4.75;;;;;;;;;;5064204;28;20022;-64
2021/11/02 00:06:58;;;;;;;14.85;5.68;;;9.80;99.90;;;;;;5068079;28;20434;-64
2021/11/02 00:09:24;;;;;;;9.95;5.20;;;9.70;99.90;;;;;;5007433;28;20045;-64
2021/11/02 00:11:52;;;;;;;10.02;4.65;;;9.70;99.90;;;;;;5011601;28;20095;-64
2021/11/02 00:14:18;;;;;;;9.23;4.72;;;9.70;99.90;;;;;;5013873;28;20055;-64
2021/11/02 00:16:46;;;;;;;12.10;5.28;;;9.70;99.90;;;;;;5007293;28;20033;-64
2021/11/02 00:19:13;;;;;;;13.63;4.53;;;;;;;;;;5005003;28;20494;-64
2021/11/02 00:21:45;;;;;;;11.48;4.97;;;;;;;;;;5006742;28;20048;-64
2021/11/02 00:24:17;;;;;;;8.88;4.90;;;;;;;;;;5000142;28;20489;-64
2021/11/02 00:26:43;;;;;;;12.00;4.90;;;9.60;99.90;;;;;;5006714;28;20504;-64
2021/11/02 00:29:09;;;;;;;10.30;4.78;;;;;;;;;;5010002;28;20037;-64
2021/11/02 00:31:39;;;;;;;11.52;4.88;;;;;;;;;;5014856;28;20093;-64
2021/11/02 00:34:05;;;;;;;9.93;5.07;;;;;;;;;;5062953;28;20030;-66
2021/11/02 00:36:32;;;;;;;10.82;4.50;;;;;;;;;;5071844;28;20029;-64
2021/11/02 00:38:58;;;;;;;8.82;4.70;;;;;;;;;;5009909;28;20451;-64
2021/11/02 00:41:24;;;;;;;9.45;4.80;;;;;;;;;;5013342;28;20030;-64
2021/11/02 00:43:51;;;;;;;10.40;4.72;;;;;;;;;;5007762;28;20254;-64
2021/11/02 00:46:24;;;;;;;11.38;5.00;;;;;;;;;;5004511;28;20077;-64
2021/11/02 00:48:50;;;;;;;12.07;4.75;;;;;;;;;;5064629;28;20038;-64
2021/11/02 00:51:17;;;;;;;11.90;6.30;;;;;;;;;;5064862;28;20029;-64
2021/11/02 00:53:43;;;;;;;16.42;6.53;;;;;;;;;;5070636;28;20560;-64
2021/11/02 00:56:09;;;;;;;12.35;6.07;;;;;;;;;;5008926;28;20513;-64
2021/11/02 00:58:37;;;;;;;12.73;5.70;;;;;;;;;;5014593;28;20037;-64
2021/11/02 01:01:03;;;;;;;14.10;6.95;;;;;;;;;;5081023;28;20082;-64
2021/11/02 01:03:29;;;;;;;10.23;6.07;;;;;;;;;;5007651;28;20114;-64
2021/11/02 01:05:55;;;;;;;10.73;5.25;;;;;;;;;;4999834;28;20038;-64
2021/11/02 01:08:21;;;;;;;11.35;6.30;;;;;;;;;;4995594;28;20057;-64
2021/11/02 01:10:48;;;;;;;20.85;12.35;;;;;;;;;;5002356;28;20039;-64
2021/11/02 01:13:14;;;;;;;21.48;12.27;;;;;;;;;;5070980;28;20476;-64
2021/11/02 01:15:40;;;;;;;33.17;17.73;;;;;;;;;;5066671;28;20113;-64
2021/11/02 01:18:06;;;;;;;28.77;15.50;;;;;;;;;;4997456;28;20042;-64
2021/11/02 01:20:34;;;;;;;146.10;59.17;;;9.90;99.90;;;;;;5070904;28;20030;-64
2021/11/02 01:23:00;;;;;;;142.63;56.67;;;;;;;;;;5074253;28;20036;-64
2021/11/02 01:25:26;;;;;;;109.22;45.25;;;;;;;;;;5081080;28;20116;-63
2021/11/02 01:27:52;;;;;;;115.60;42.03;;;;;;;;;;5011912;28;20155;-63
2021/11/02 01:30:21;;;;;;;82.22;32.08;;;;;;;;;;5076250;28;20038;-63
2021/11/02 01:32:47;;;;;;;61.67;24.80;;;10.20;99.90;;;;;;5000626;28;20034;-63
2021/11/02 01:35:13;;;;;;;53.00;19.98;;;;;;;;;;4997472;28;20038;-63
2021/11/02 01:37:41;;;;;;;59.75;24.08;;;;;;;;;;5066008;28;20111;-63
2021/11/02 01:40:07;;;;;;;37.47;15.93;;;;;;;;;;5057333;28;20026;-63
2021/11/02 01:42:34;;;;;;;21.23;8.90;;;;;;;;;;5081700;28;20040;-63
2021/11/02 01:45:04;;;;;;;18.58;7.32;;;;;;;;;;5084745;28;20627;-63
2021/11/02 01:47:30;;;;;;;15.60;6.85;;;;;;;;;;5080862;28;20033;-63
2021/11/02 01:49:56;;;;;;;14.07;6.18;;;;;;;;;;5077610;28;20070;-63
2021/11/02 01:52:23;;;;;;;10.25;5.20;;;;;;;;;;5066444;28;20038;-63
2021/11/02 01:54:50;;;;;;;13.65;5.22;;;;;;;;;;5068086;28;20098;-64
2021/11/02 01:57:16;;;;;;;12.95;4.55;;;;;;;;;;5004601;28;20505;-63
2021/11/02 01:59:43;;;;;;;8.40;4.35;;;;;;;;;;5079687;28;20030;-63
2021/11/02 02:02:20;;;;;;;8.45;4.22;;;;;;;;;;5083614;28;20120;-64
2021/11/02 02:04:47;;;;;;;10.80;4.20;;;;;;;;;;5083192;28;20040;-64
2021/11/02 02:07:15;;;;;;;10.48;4.53;;;;;;;;;;5077476;28;20054;-64
2021/11/02 02:09:43;;;;;;;9.00;4.38;;;;;;;;;;5069976;28;20114;-65
2021/11/02 02:12:09;;;;;;;11.43;5.05;;;;;;;;;;5067249;28;20117;-64
2021/11/02 02:14:36;;;;;;;11.77;4.97;;;;;;;;;;5071515;28;20120;-64
2021/11/02 02:17:04;;;;;;;11.45;4.75;;;;;;;;;;5075994;28;20053;-63
2021/11/02 02:19:30;;;;;;;7.07;3.78;;;;;;;;;;5064419;28;20496;-64
2021/11/02 02:21:56;;;;;;;11.48;5.00;;;;;;;;;;5015545;28;20029;-64
2021/11/02 02:24:22;;;;;;;9.43;5.18;;;;;;;;;;5079459;28;20034;-64
2021/11/02 02:26:48;;;;;;;10.13;4.38;;;8.70;99.90;;;;;;5074846;28;20094;-64
2021/11/02 02:29:15;;;;;;;11.93;4.97;;;;;;;;;;5065812;28;20034;-64
2021/11/02 02:31:42;;;;;;;11.07;4.90;;;;;;;;;;5083208;28;20026;-64
2021/11/02 02:34:12;;;;;;;13.30;5.78;;;9.00;99.90;;;;;;5077820;28;20030;-64
2021/11/02 02:36:43;;;;;;;11.38;4.82;;;9.60;99.90;;;;;;5009836;28;20443;-64
2021/11/02 02:39:10;;;;;;;12.02;4.53;;;9.10;99.90;;;;;;5068210;28;20042;-64
2021/11/02 02:41:38;;;;;;;12.98;4.32;;;9.10;99.90;;;;;;5070172;28;20033;-64
2021/11/02 02:44:05;;;;;;;8.50;4.38;;;9.40;99.90;;;;;;5075056;28;20033;-64
2021/11/02 02:46:31;;;;;;;9.05;4.55;;;9.10;99.90;;;;;;5080601;28;20022;-64
2021/11/02 02:48:57;;;;;;;8.43;4.40;;;;;;;;;;5084070;28;20040;-64
2021/11/02 02:51:24;;;;;;;9.27;4.53;;;;;;;;;;5011095;28;20034;-64
2021/11/02 02:53:52;;;;;;;9.82;4.75;;;;;;;;;;5073772;28;20509;-64
2021/11/02 02:56:18;;;;;;;9.23;4.03;;;;;;;;;;5001067;28;20041;-64
2021/11/02 02:58:45;;;;;;;12.27;4.68;;;;;;;;;;5065791;28;20037;-64
2021/11/02 03:01:11;;;;;;;8.52;4.22;;;9.00;99.90;;;;;;5072702;28;20017;-64
2021/11/02 03:03:37;;;;;;;10.20;4.30;;;9.00;99.90;;;;;;5076407;28;20030;-64
2021/11/02 03:06:03;;;;;;;10.88;4.22;;;9.00;99.90;;;;;;5013606;28;20740;-64
2021/11/02 03:08:34;;;;;;;11.32;4.80;;;9.00;99.90;;;;;;5081226;28;20572;-64
2021/11/02 03:11:00;;;;;;;10.73;4.95;;;;;;;;;;5071881;28;20082;-63
2021/11/02 03:13:26;;;;;;;9.60;4.35;;;;;;;;;;5068353;28;20458;-64
2021/11/02 03:15:57;;;;;;;12.02;4.72;;;8.00;99.90;;;;;;5066391;28;20036;-63
2021/11/02 03:18:47;;;;;;;9.15;4.28;;;8.90;99.90;;;;;;5000481;28;20077;-64
2021/11/02 03:57:05;;;;;;;9.75;4.40;;;;;;;;;;5068669;28;20116;-63
2021/11/02 04:24:42;;;;;;;16.30;6.55;;;8.40;99.90;;;;;;5071410;28;20044;-64
2021/11/02 04:43:45;;;;;;;11.02;5.20;;;8.50;99.90;;;;;;5071456;28;20516;-65
2021/11/02 06:00:14;;;;;;;15.25;5.60;;;;;;;;;;5085323;28;20033;-64
2021/11/02 06:03:14;;;;;;;11.25;5.07;;;;;;;;;;5078665;28;20022;-64
2021/11/02 06:05:45;;;;;;;11.90;5.50;;;;;;;;;;5013161;28;20105;-64
2021/11/02 06:08:31;;;;;;;12.07;5.78;;;;;;;;;;5013350;28;20037;-64
2021/11/02 06:11:30;;;;;;;11.68;5.80;;;;;;;;;;5074860;28;20035;-63
2021/11/02 06:30:09;;;;;;;11.32;6.18;;;8.20;99.90;;;;;;5015972;28;20026;-63
2021/11/02 06:32:38;;;;;;;14.63;5.68;;;;;;;;;;5011124;28;20056;-63
2021/11/02 06:35:19;;;;;;;15.10;6.15;;;8.60;99.90;;;;;;5012685;28;20044;-63
2021/11/02 06:46:10;;;;;;;13.05;5.35;;;;;;;;;;5005499;28;20033;-66
2021/11/02 07:20:48;;;;;;;14.93;6.22;;;;;;;;;;5069717;28;20046;-66
2021/11/02 07:23:25;;;;;;;14.73;7.28;;;;;;;;;;5007540;28;20090;-62
2021/11/02 07:26:09;;;;;;;13.57;6.95;;;8.80;99.90;;;;;;5003597;28;20026;-62
2021/11/02 08:45:42;;;;;;;14.35;6.80;;;;;;;;;;5018137;28;20044;-63
2021/11/02 08:47:55;;;;;;;15.10;6.72;;;;;;;;;;5011452;28;20565;-63
2021/11/02 08:50:21;;;;;;;14.50;7.63;;;;;;;;;;5011985;28;20058;-63
2021/11/02 08:52:51;;;;;;;11.00;5.68;;;;;;;;;;5004910;28;20034;-63
2021/11/02 08:55:17;;;;;;;10.70;5.60;;;;;;;;;;5067546;28;20144;-62
2021/11/02 08:57:43;;;;;;;12.82;5.43;;;;;;;;;;5070168;28;20070;-63
2021/11/02 09:00:11;;;;;;;15.50;5.95;;;;;;;;;;5006659;28;20060;-62
2021/11/02 09:02:37;;;;;;;14.80;7.18;;;;;;;;;;5006403;28;20025;-63
2021/11/02 09:05:03;;;;;;;11.43;5.47;;;;;;;;;;5080647;28;20037;-65
2021/11/02 09:07:28;;;;;;;10.80;5.60;;;;;;;;;;5012185;28;20037;-64
2021/11/02 09:09:56;;;;;;;11.07;5.40;;;;;;;;;;5009411;28;20025;-62
2021/11/02 09:12:22;;;;;;;9.77;5.60;;;;;;;;;;5006764;28;20030;-63
2021/11/02 09:14:48;;;;;;;7.53;5.10;;;;;;;;;;5074531;28;20390;-62
2021/11/02 09:17:14;;;;;;;10.75;5.30;;;;;;;;;;5009929;28;20120;-62
2021/11/02 09:19:41;;;;;;;11.82;5.15;;;;;;;;;;5013853;28;20108;-63
2021/11/02 09:22:10;;;;;;;11.90;7.05;;;;;;;;;;5009153;28;20086;-63
2021/11/02 09:24:42;;;;;;;10.23;5.50;;;;;;;;;;5079983;28;20034;-63
2021/11/02 09:27:07;;;;;;;12.40;6.80;;;;;;;;;;5007911;28;20078;-63
2021/11/02 09:29:33;;;;;;;9.27;4.88;;;;;;;;;;5012066;28;20144;-63
2021/11/02 09:31:59;;;;;;;11.30;6.20;;;11.10;99.90;;;;;;5011589;28;20041;-63
2021/11/02 09:34:28;;;;;;;14.50;5.75;;;;;;;;;;5013684;28;20033;-62
2021/11/02 09:36:54;;;;;;;10.82;5.53;;;;;;;;;;5007739;28;20042;-62
2021/11/02 09:39:20;;;;;;;13.35;5.65;;;;;;;;;;5008299;28;20110;-63
2021/11/02 09:41:46;;;;;;;12.93;5.82;;;;;;;;;;5013796;28;20029;-63
2021/11/02 09:44:13;;;;;;;17.42;7.10;;;;;;;;;;5076811;28;20029;-63
2021/11/02 09:46:42;;;;;;;10.68;5.85;;;;;;;;;;5010053;28;20030;-63
2021/11/02 09:49:08;;;;;;;12.52;5.43;;;;;;;;;;5010261;28;20042;-63
2021/11/02 09:51:34;;;;;;;11.43;5.30;;;;;;;;;;5011105;28;20029;-67
2021/11/02 09:54:00;;;;;;;15.32;6.00;;;;;;;;;;5007468;28;20064;-63
2021/11/02 09:56:27;;;;;;;20.27;6.30;;;;;;;;;;5073160;28;20037;-63
2021/11/02 09:58:54;;;;;;;14.55;6.10;;;;;;;;;;5013228;28;20033;-62
2021/11/02 10:01:20;;;;;;;10.48;5.25;;;;;;;;;;5006338;28;20137;-63
2021/11/02 10:03:48;;;;;;;10.80;5.43;;;;;;;;;;5076296;28;20541;-63
2021/11/02 10:06:16;;;;;;;14.93;5.45;;;;;;;;;;5014111;28;20030;-63
2021/11/02 10:08:43;;;;;;;14.85;6.03;;;;;;;;;;5015980;28;20039;-61
2021/11/02 10:11:10;;;;;;;12.40;4.97;;;;;;;;;;5080566;28;20041;-66
2021/11/02 10:13:36;;;;;;;9.48;4.75;;;;;;;;;;5075783;28;20045;-67
2021/11/02 10:16:07;;;;;;;12.55;4.90;;;;;;;;;;5075438;28;20105;-69
2021/11/02 10:18:37;;;;;;;11.15;4.97;;;;;;;;;;5010840;28;20037;-69
2021/11/02 10:21:03;;;;;;;13.77;5.55;;;;;;;;;;5012007;28;20044;-69
2021/11/02 10:23:29;;;;;;;9.23;4.80;;;;;;;;;;5007840;28;20065;-69
2021/11/02 10:25:55;;;;;;;13.40;4.80;;;;;;;;;;5003189;28;20037;-69
2021/11/02 10:28:21;;;;;;;11.13;5.18;;;;;;;;;;5076052;28;20038;-71
2021/11/02 10:30:47;;;;;;;8.00;5.00;;;;;;;;;;5012806;28;20050;-69
2021/11/02 10:33:13;;;;;;;23.75;8.57;;;;;;;;;;5082374;28;20037;-69
2021/11/02 10:35:39;;;;;;;18.85;6.20;;;;;;;;;;5015860;28;20144;-69
2021/11/02 10:38:05;;;;;;;15.27;6.00;;;;;;;;;;5008795;28;20034;-69
2021/11/02 10:40:33;;;;;;;14.15;5.43;;;;;;;;;;5010072;28;20041;-69
2021/11/02 10:43:08;;;;;;;13.30;5.22;;;;;;;;;;5003612;28;20044;-69
2021/11/02 10:45:36;;;;;;;15.02;5.72;;;;;;;;;;5074526;28;20156;-69
2021/11/02 10:48:03;;;;;;;23.30;7.85;;;;;;;;;;5078104;28;20038;-69
2021/11/02 10:50:36;;;;;;;21.30;7.30;;;;;;;;;;5080021;28;20094;-62
2021/11/02 10:53:01;;;;;;;13.75;6.47;;;14.00;99.90;;;;;;5000958;28;20037;-62
2021/11/02 10:55:27;;;;;;;35.55;14.75;;;;;;;;;;5013863;28;20570;-62
2021/11/02 10:57:53;;;;;;;29.13;10.88;;;;;;;;;;5009871;28;20048;-62
2021/11/02 11:00:19;;;;;;;39.35;22.33;;;;;;;;;;5003985;28;20026;-63
2021/11/02 11:02:45;;;;;;;30.02;17.60;;;;;;;;;;5007709;28;20029;-63
2021/11/02 11:05:11;;;;;;;13.27;5.40;;;;;;;;;;5008633;28;20844;-62
2021/11/02 11:07:37;;;;;;;16.25;8.32;;;;;;;;;;5014199;28;20037;-62
2021/11/02 11:10:03;;;;;;;20.27;9.57;;;;;;;;;;5012326;28;20550;-62
2021/11/02 11:12:29;;;;;;;18.35;10.48;;;;;;;;;;5081567;28;20047;-63
2021/11/02 11:14:55;;;;;;;15.73;6.30;;;;;;;;;;5003111;28;20056;-62
2021/11/02 11:17:21;;;;;;;12.35;6.63;;;;;;;;;;5011004;28;20560;-62
2021/11/02 11:19:47;;;;;;;21.52;4.85;;;;;;;;;;5008839;28;20043;-62
2021/11/02 11:22:15;;;;;;;13.32;5.05;;;;;;;;;;5013430;28;20415;-62
2021/11/02 11:24:41;;;;;;;7.95;4.80;;;;;;;;;;5012051;28;20044;-62
2021/11/02 11:27:07;;;;;;;10.32;5.47;;;;;;;;;;5005766;28;20029;-62
2021/11/02 11:29:33;;;;;;;12.00;4.97;;;;;;;;;;5007800;28;20068;-62
2021/11/02 11:31:59;;;;;;;13.13;6.22;;;;;;;;;;5014007;28;20045;-62
2021/11/02 11:34:25;;;;;;;16.38;5.78;;;;;;;;;;5076468;28;20033;-63
2021/11/02 11:36:51;;;;;;;21.45;9.18;;;;;;;;;;5080376;28;20136;-62
2021/11/02 11:39:17;;;;;;;39.58;24.65;;;;;;;;;;5015127;28;20042;-63
2021/11/02 11:41:43;;;;;;;59.30;30.25;;;;;;;;;;5013942;28;20887;-63
2021/11/02 11:44:10;;;;;;;45.47;22.38;;;;;;;;;;5077706;28;20844;-63
2021/11/02 11:46:36;;;;;;;35.47;18.33;;;;;;;;;;5013570;28;20029;-63
2021/11/02 11:49:02;;;;;;;17.42;6.53;;;;;;;;;;5012342;28;20061;-63
2021/11/02 11:51:28;;;;;;;10.15;5.85;;;;;;;;;;5011317;28;20039;-63
2021/11/02 11:53:55;;;;;;;12.27;5.47;;;;;;;;;;5077754;28;20037;-63
2021/11/02 11:56:21;;;;;;;14.27;7.05;;;;;;;;;;5015482;28;20037;-63
2021/11/02 11:58:47;;;;;;;11.80;5.07;;;;;;;;;;5003683;28;20052;-63
2021/11/02 12:01:13;;;;;;;11.00;3.97;;;;;;;;;;5006742;28;20532;-63
2021/11/02 12:03:39;;;;;;;9.95;5.25;;;;;;;;;;5075103;28;20101;-62
2021/11/02 12:06:05;;;;;;;15.48;4.65;;;;;;;;;;5012685;28;20029;-67
2021/11/02 12:08:31;;;;;;;9.43;3.70;;;;;;;;;;5014036;28;20037;-66
2021/11/02 12:10:57;;;;;;;13.30;3.90;;;;;;;;;;5079691;28;20041;-66
2021/11/02 12:13:23;;;;;;;6.22;3.30;;;;;;;;;;5003741;28;20037;-66
2021/11/02 12:15:59;;;;;;;11.32;4.85;;;;;;;;;;5082394;28;20044;-63
2021/11/02 12:18:26;;;;;;;12.68;4.18;;;;;;;;;;5081304;28;20037;-67
2021/11/02 12:20:52;;;;;;;29.08;13.57;;;;;;;;;;5078565;28;20497;-62
2021/11/02 12:23:19;;;;;;;17.33;8.68;;;;;;;;;;5012257;28;20029;-62
2021/11/02 12:25:47;;;;;;;20.02;10.77;;;;;;;;;;5082766;28;20025;-66
2021/11/02 12:28:14;;;;;;;12.32;4.57;;;;;;;;;;5010395;28;20040;-62
2021/11/02 12:30:40;;;;;;;10.52;3.13;;;;;;;;;;5012736;28;20044;-65
2021/11/02 12:33:06;;;;;;;19.75;9.23;;;;;;;;;;5014312;28;20038;-62
2021/11/02 12:35:32;;;;;;;11.32;3.67;;;;;;;;;;5012141;28;20029;-62
2021/11/02 12:38:01;;;;;;;10.35;3.47;;;;;;;;;;5008447;28;20034;-62
2021/11/02 12:40:27;;;;;;;8.63;3.30;;;;;;;;;;5011822;28;20042;-62
2021/11/02 12:42:53;;;;;;;16.73;6.57;;;;;;;;;;5014524;28;20072;-67
2021/11/02 12:45:19;;;;;;;18.17;9.10;;;;;;;;;;5014070;28;20055;-62
2021/11/02 12:47:46;;;;;;;12.57;4.38;;;;;;;;;;5009946;28;20097;-62
2021/11/02 12:50:12;;;;;;;25.27;9.90;;;;;;;;;;5006939;28;20042;-65
2021/11/02 12:52:38;;;;;;;21.75;9.57;;;;;;;;;;5082620;28;20106;-65
2021/11/02 12:55:04;;;;;;;31.73;12.35;;;;;;;;;;5011282;28;20029;-67
2021/11/02 12:57:30;;;;;;;13.18;6.28;;;;;;;;;;5008114;28;20572;-67
2021/11/02 12:59:56;;;;;;;8.25;4.70;;;;;;;;;;5081492;28;20934;-67
2021/11/02 13:02:23;;;;;;;12.13;4.13;;;;;;;;;;5013878;28;20045;-67
2021/11/02 13:04:49;;;;;;;10.18;3.30;;;;;;;;;;5072744;28;20464;-66
2021/11/02 13:07:15;;;;;;;10.38;3.60;;;;;;;;;;5008629;28;20483;-67
2021/11/02 13:09:41;;;;;;;6.93;2.85;;;;;;;;;;5001837;28;20052;-67
2021/11/02 13:12:07;;;;;;;13.35;6.63;;;;;;;;;;5006615;28;20038;-67
2021/11/02 13:14:34;;;;;;;10.82;4.60;;;;;;;;;;5011735;28;20648;-67
2021/11/02 13:17:00;;;;;;;26.42;10.68;;;;;;;;;;5010777;28;20038;-62
2021/11/02 13:19:26;;;;;;;13.30;6.28;;;;;;;;;;5008766;28;20063;-62
2021/11/02 13:21:52;;;;;;;8.90;4.55;;;;;;;;;;5002277;28;20316;-63
2021/11/02 13:24:18;;;;;;;6.97;3.17;;;;;;;;;;5003672;28;20697;-63
2021/11/02 13:26:45;;;;;;;13.27;4.45;;;;;;;;;;5073099;28;20037;-63
2021/11/02 13:29:11;;;;;;;9.45;5.22;;;;;;;;;;5009394;28;20044;-64
2021/11/02 13:31:37;;;;;;;40.30;18.02;;;;;;;;;;5005193;28;20665;-66
2021/11/02 13:34:03;;;;;;;30.90;15.25;;;;;;;;;;5006892;28;20825;-67
2021/11/02 13:36:29;;;;;;;20.88;8.77;;;;;;;;;;5081732;28;20033;-66
2021/11/02 13:38:55;;;;;;;11.65;4.88;;;;;;;;;;5006029;28;20037;-67
2021/11/02 13:41:21;;;;;;;54.03;5.40;;;;;;;;;;5003137;28;20290;-66
2021/11/02 13:43:47;;;;;;;14.55;4.82;;;;;;;;;;5012334;28;20029;-67
2021/11/02 13:46:13;;;;;;;18.98;8.32;;;;;;;;;;5010653;28;20030;-66
2021/11/02 13:48:39;;;;;;;19.40;9.25;;;;;;;;;;5010411;28;20709;-62
2021/11/02 13:51:05;;;;;;;28.17;12.40;;;;;;;;;;5011745;28;20033;-63
2021/11/02 13:53:34;;;;;;;10.27;4.10;;;;;;;;;;5005004;28;20115;-63
2021/11/02 13:56:00;;;;;;;19.48;9.63;;;;;;;;;;5015082;28;20029;-63
2021/11/02 13:58:26;;;;;;;14.25;5.30;;;;;;;;;;5013113;28;20045;-63
2021/11/02 14:00:52;;;;;;;12.82;4.18;;;;;;;;;;5012834;28;20033;-63
2021/11/02 14:03:18;;;;;;;15.60;5.53;;;;;;;;;;5006670;28;20303;-63
2021/11/02 14:05:45;;;;;;;12.65;3.70;;;;;;;;;;5069790;28;20036;-64
2021/11/02 14:08:11;;;;;;;18.27;9.35;;;;;;;;;;5005332;28;20068;-63
2021/11/02 14:10:37;;;;;;;9.85;4.80;;;;;;;;;;5010646;28;20210;-63
2021/11/02 14:13:03;;;;;;;34.60;18.75;;;;;;;;;;5013550;28;20040;-63
2021/11/02 14:15:29;;;;;;;47.75;20.20;;;;;;;;;;5016325;28;20053;-65
2021/11/02 14:17:55;;;;;;;11.98;5.10;;;;;;;;;;5078638;28;20588;-64
2021/11/02 14:20:20;;;;;;;117.05;47.40;;;16.70;99.90;;;;;;5009517;28;20085;-64
2021/11/02 14:22:48;;;;;;;54.75;22.42;;;;;;;;;;5016125;28;20540;-64
2021/11/02 14:25:14;;;;;;;17.25;5.43;;;;;;;;;;5015825;28;20538;-66
2021/11/02 14:27:40;;;;;;;15.50;6.22;;;;;;;;;;5010779;28;20053;-65
2021/11/02 14:30:06;;;;;;;15.32;6.18;;;;;;;;;;5011994;28;20491;-63
2021/11/02 14:32:32;;;;;;;11.48;4.05;;;;;;;;;;5078770;28;20628;-64
2021/11/02 14:34:58;;;;;;;14.02;4.80;;;;;;;;;;5010683;28;20727;-64
2021/11/02 14:37:25;;;;;;;12.52;4.10;;;;;;;;;;5010839;28;20036;-64
2021/11/02 14:39:51;;;;;;;11.63;3.38;;;;;;;;;;5012497;28;20037;-64
2021/11/02 14:42:17;;;;;;;11.93;3.90;;;;;;;;;;5011460;28;20823;-65
2021/11/02 14:44:43;;;;;;;9.25;3.35;;;;;;;;;;5015783;28;20083;-64
2021/11/02 14:47:09;;;;;;;7.75;3.40;;;;;;;;;;5013981;28;20192;-64
2021/11/02 14:49:37;;;;;;;11.50;3.30;;;;;;;;;;5010797;28;20175;-64
2021/11/02 14:52:03;;;;;;;9.30;3.17;;;;;;;;;;5010555;28;20102;-68
2021/11/02 14:54:29;;;;;;;13.80;4.05;;;;;;;;;;5016500;28;20078;-68
2021/11/02 14:56:56;;;;;;;11.48;4.35;;;;;;;;;;5015866;28;20044;-65
2021/11/02 14:59:22;;;;;;;10.88;3.92;;;;;;;;;;5018170;28;20037;-64
2021/11/02 15:01:48;;;;;;;12.80;4.00;;;;;;;;;;5016681;28;20044;-66
2021/11/02 15:04:14;;;;;;;8.35;3.97;;;;;;;;;;5014019;28;20513;-64
2021/11/02 15:06:40;;;;;;;12.70;4.28;;;;;;;;;;5011265;28;20033;-64
2021/11/02 15:09:06;;;;;;;10.38;4.38;;;;;;;;;;5009926;28;20064;-64
2021/11/02 15:11:32;;;;;;;11.88;4.57;;;;;;;;;;5011132;28;20034;-64
2021/11/02 15:13:58;;;;;;;11.82;4.20;;;;;;;;;;5011081;28;20094;-64
2021/11/02 15:16:24;;;;;;;11.95;5.55;;;;;;;;;;5079284;28;20072;-64
2021/11/02 15:18:50;;;;;;;9.82;4.22;;;;;;;;;;5011285;28;20144;-64
2021/11/02 15:21:21;;;;;;;7.80;4.00;;;11.60;99.90;;;;;;5016855;28;20049;-64
2021/11/02 15:23:47;;;;;;;11.90;4.35;;;;;;;;;;5014812;28;20105;-64
2021/11/02 15:26:13;;;;;;;15.40;4.70;;;;;;;;;;5009209;28;20113;-64
2021/11/02 15:28:39;;;;;;;10.30;3.95;;;;;;;;;;5001215;28;20098;-64
2021/11/02 15:31:05;;;;;;;8.45;3.55;;;;;;;;;;5009545;28;20065;-64
2021/11/02 15:33:33;;;;;;;13.10;5.38;;;;;;;;;;5078741;28;21042;-65
2021/11/02 15:35:59;;;;;;;7.30;4.10;;;;;;;;;;5010773;28;20874;-64
2021/11/02 15:38:24;;;;;;;19.45;4.93;;;;;;;;;;5015288;28;20748;-64
2021/11/02 15:40:50;;;;;;;10.40;4.80;;;;;;;;;;5014373;28;20033;-64
2021/11/02 15:43:16;;;;;;;12.25;4.93;;;;;;;;;;5078594;28;20041;-64
2021/11/02 15:45:45;;;;;;;15.23;5.57;;;;;;;;;;5007842;28;20068;-64
2021/11/02 15:48:11;;;;;;;13.20;6.53;;;;;;;;;;5001563;28;20034;-64
2021/11/02 15:50:37;;;;;;;22.52;9.05;;;;;;;;;;5010357;28;20034;-64
2021/11/02 15:53:03;;;;;;;45.00;16.08;;;;;;;;;;5007768;28;20036;-63
2021/11/02 15:55:29;;;;;;;36.28;15.63;;;;;;;;;;5012335;28;20464;-63
2021/11/02 15:57:55;;;;;;;24.80;8.45;;;;;;;;;;5010012;28;20041;-63
2021/11/02 16:00:21;;;;;;;18.05;8.48;;;;;;;;;;5013718;28;20041;-64
2021/11/02 16:02:47;;;;;;;15.50;6.22;;;;;;;;;;5014177;28;20048;-63
2021/11/02 16:05:13;;;;;;;21.23;6.80;;;;;;;;;;5082543;28;20033;-63
2021/11/02 16:07:39;;;;;;;15.80;4.60;;;;;;;;;;5010052;28;20037;-63
2021/11/02 16:10:05;;;;;;;11.40;4.60;;;;;;;;;;5007113;28;20029;-63
2021/11/02 16:12:31;;;;;;;12.07;4.72;;;;;;;;;;5008621;28;20021;-64
2021/11/02 16:14:57;;;;;;;15.13;5.57;;;;;;;;;;5010745;28;20050;-63
2021/11/02 16:17:23;;;;;;;15.48;5.45;;;;;;;;;;5010538;28;20033;-63
2021/11/02 16:19:49;;;;;;;19.48;7.20;;;;;;;;;;5011484;28;20030;-63
2021/11/02 16:22:15;;;;;;;16.80;6.97;;;;;;;;;;5016655;28;20683;-63
2021/11/02 16:24:41;;;;;;;17.20;6.40;;;;;;;;;;5014425;28;20021;-63
2021/11/02 16:27:07;;;;;;;17.83;6.60;;;;;;;;;;5012457;28;20033;-68
2021/11/02 16:29:33;;;;;;;13.77;5.75;;;;;;;;;;5011940;28;20034;-62
2021/11/02 16:31:59;;;;;;;12.73;5.93;;;;;;;;;;5017518;28;20021;-62
2021/11/02 16:34:25;;;;;;;12.10;5.47;;;;;;;;;;5082407;28;20066;-62
2021/11/02 16:36:51;;;;;;;35.47;15.02;;;;;;;;;;5009779;28;20056;-63
2021/11/02 16:39:19;;;;;;;36.65;14.82;;;;;;;;;;5015140;28;20037;-71
2021/11/02 16:41:45;;;;;;;31.38;12.80;;;;;;;;;;5016131;28;20025;-64
2021/11/02 16:44:11;;;;;;;28.70;11.82;;;;;;;;;;5011140;28;20085;-64
2021/11/02 16:46:37;;;;;;;23.80;7.97;;;;;;;;;;5006536;28;20026;-64
2021/11/02 16:49:03;;;;;;;21.27;9.57;;;;;;;;;;5068668;28;20125;-64
2021/11/02 16:51:29;;;;;;;34.95;15.10;;;;;;;;;;5001129;28;20057;-64
2021/11/02 16:53:55;;;;;;;25.15;11.40;;;;;;;;;;5003355;28;20129;-64
2021/11/02 16:56:21;;;;;;;25.38;11.60;;;;;;;;;;5008712;28;20037;-63
2021/11/02 16:58:48;;;;;;;19.55;9.60;;;;;;;;;;5003226;28;20034;-64
2021/11/02 17:01:14;;;;;;;19.63;8.35;;;;;;;;;;4999903;28;20038;-64
2021/11/02 17:03:40;;;;;;;15.38;6.25;;;;;;;;;;5003567;28;20432;-64
2021/11/02 17:06:06;;;;;;;15.18;6.10;;;;;;;;;;5010548;28;20086;-64
2021/11/02 17:08:32;;;;;;;12.18;5.72;;;;;;;;;;5013045;28;20826;-64
2021/11/02 17:10:58;;;;;;;11.15;5.40;;;;;;;;;;5009602;28;20496;-64
2021/11/02 17:13:26;;;;;;;10.75;5.38;;;;;;;;;;5005198;28;20076;-64
2021/11/02 17:15:52;;;;;;;12.60;5.63;;;;;;;;;;5008306;28;20178;-64
2021/11/02 17:18:18;;;;;;;8.93;4.95;;;;;;;;;;5079788;28;20517;-64
2021/11/02 17:20:44;;;;;;;7.28;4.47;;;;;;;;;;5009034;28;20034;-64
2021/11/02 17:23:10;;;;;;;11.25;5.40;;;;;;;;;;5001995;28;20050;-64
2021/11/02 17:25:36;;;;;;;13.68;5.50;;;;;;;;;;4995188;28;20891;-64
2021/11/02 17:28:02;;;;;;;14.20;6.40;;;;;;;;;;5063707;28;20049;-64
2021/11/02 17:30:28;;;;;;;16.67;6.07;;;;;;;;;;5068098;28;20679;-64
2021/11/02 17:32:54;;;;;;;11.35;5.20;;;;;;;;;;5007301;28;20037;-64
2021/11/02 17:35:20;;;;;;;8.32;5.85;;;;;;;;;;5013340;28;20040;-64
2021/11/02 17:37:46;;;;;;;15.45;5.70;;;;;;;;;;5010638;28;20516;-64
2021/11/02 17:40:12;;;;;;;15.40;6.05;;;;;;;;;;5005590;28;20034;-64
2021/11/02 17:42:40;;;;;;;16.73;7.18;;;;;;;;;;5000009;28;20033;-64
2021/11/02 17:45:06;;;;;;;12.45;5.70;;;8.70;99.90;;;;;;5012300;28;20112;-63
2021/11/02 17:47:32;;;;;;;13.52;6.22;;;;;;;;;;5007992;28;20396;-63
2021/11/02 17:49:58;;;;;;;15.63;5.70;;;;;;;;;;5004860;28;20114;-64
2021/11/02 17:52:24;;;;;;;13.90;6.07;;;;;;;;;;4998861;28;20026;-63
2021/11/02 17:54:50;;;;;;;13.70;7.45;;;;;;;;;;4994786;28;20618;-63
2021/11/02 17:57:16;;;;;;;9.38;5.97;;;;;;;;;;4999795;28;20033;-63
2021/11/02 17:59:42;;;;;;;23.13;14.23;;;;;;;;;;5005965;28;20033;-63
2021/11/02 18:02:08;;;;;;;23.40;14.60;;;;;;;;;;5010259;28;20882;-63
2021/11/02 18:04:34;;;;;;;17.98;12.35;;;;;;;;;;5012914;28;20030;-63
2021/11/02 18:07:00;;;;;;;20.10;11.88;;;;;;;;;;5005579;28;20034;-67
2021/11/02 18:09:26;;;;;;;20.17;11.38;;;;;;;;;;5001904;28;20041;-63
2021/11/02 18:11:52;;;;;;;16.40;9.98;;;;;;;;;;4997402;28;20887;-63
2021/11/02 18:14:18;;;;;;;16.75;8.98;;;;;;;;;;5065222;28;20034;-63
2021/11/02 18:16:44;;;;;;;18.13;10.07;;;;;;;;;;5070114;28;20082;-63
2021/11/02 18:19:10;;;;;;;20.88;9.63;;;;;;;;;;5006567;28;20087;-63
2021/11/02 18:21:36;;;;;;;14.80;7.63;;;;;;;;;;5013521;28;20037;-63
2021/11/02 18:24:02;;;;;;;15.80;7.15;;;;;;;;;;5014419;28;20026;-63
2021/11/02 18:26:28;;;;;;;15.27;6.60;;;;;;;;;;5007591;28;20141;-63
2021/11/02 18:28:54;;;;;;;14.60;7.85;;;;;;;;;;4999646;28;20129;-63
2021/11/02 18:31:20;;;;;;;19.25;8.73;;;;;;;;;;4998623;28;20116;-63
2021/11/02 18:33:46;;;;;;;14.15;8.70;;;;;;;;;;5002694;28;20034;-63
2021/11/02 18:36:12;;;;;;;16.90;8.57;;;10.00;99.90;;;;;;5004150;28;20057;-62
2021/11/02 18:38:38;;;;;;;24.00;12.20;;;;;;;;;;5068855;28;20766;-64
2021/11/02 18:41:04;;;;;;;21.98;12.57;;;;;;;;;;5000944;28;20621;-62
2021/11/02 18:43:30;;;;;;;22.92;10.23;;;;;;;;;;5005004;28;20042;-63
2021/11/02 18:45:56;;;;;;;14.55;9.00;;;;;;;;;;5008402;28;20464;-63
2021/11/02 18:48:22;;;;;;;18.77;8.32;;;;;;;;;;5014850;28;20041;-63
2021/11/02 18:50:48;;;;;;;11.75;6.65;;;;;;;;;;5013212;28;20041;-63
2021/11/02 18:53:14;;;;;;;14.57;6.45;;;;;;;;;;5008298;28;20044;-63
2021/11/02 18:55:40;;;;;;;10.75;5.28;;;;;;;;;;5007795;28;20242;-63
2021/11/02 18:58:06;;;;;;;12.82;5.65;;;;;;;;;;5010553;28;20505;-63
2021/11/02 19:00:32;;;;;;;15.15;7.82;;;;;;;;;;5014336;28;20026;-72
2021/11/02 19:02:58;;;;;;;10.88;5.30;;;9.70;99.90;;;;;;5008371;28;20087;-72